Time;durP1;ratioP1;P1;durP2;ratioP2;P2;SDS_P1;SDS_P2;PMS_P1;PMS_P2;Temp;Humidity;BMP_temperature;BMP_pressure;BME280_temperature;BME280_humidity;BME280_pressure;Samples;Min_cycle;Max_cycle;Signal;HPM_P1;HPM_P2
2022/03/24 00:02:51;;;;;;;30.23;22.43;;;;;;;10.95;29.70;101799.03;10360548;28;20202;-87
2022/03/24 00:07:55;;;;;;;30.20;20.97;;;;;;;10.79;29.98;101798.50;10364085;28;20235;-86
2022/03/24 00:12:57;;;;;;;31.77;21.93;;;;;;;11.11;29.61;101794.72;10368612;28;20236;-87
2022/03/24 00:17:59;;;;;;;34.57;21.67;;;;;;;10.86;29.82;101798.09;10372173;28;20244;-88
2022/03/24 00:23:02;;;;;;;28.40;19.93;;;;;;;10.75;29.99;101798.28;10352685;28;20205;-86
2022/03/24 00:28:06;;;;;;;33.80;22.30;;;;;;;11.06;29.34;101794.81;10359683;28;20487;-87
2022/03/24 00:33:09;;;;;;;29.73;20.97;;;;;;;9.93;30.84;101786.84;10351196;28;20279;-87
2022/03/24 00:38:11;;;;;;;30.00;20.70;;;;;;;10.57;30.02;101785.13;10378256;28;20205;-87
2022/03/24 00:43:14;;;;;;;32.23;21.90;;;;;;;10.28;30.67;101787.34;10363737;28;20205;-86
2022/03/24 00:48:17;;;;;;;29.97;20.77;;;;;;;10.32;30.73;101780.75;10378586;28;20216;-88
2022/03/24 00:53:20;;;;;;;27.87;20.87;;;;;;;10.21;30.52;101784.09;10361962;28;20213;-87
2022/03/24 00:58:22;;;;;;;31.77;21.03;;;;;;;10.44;30.27;101786.75;10373291;28;20500;-87
2022/03/24 01:03:25;;;;;;;27.33;20.20;;;;;;;10.29;30.66;101786.19;10386082;28;20181;-86
2022/03/24 01:08:27;;;;;;;29.17;20.87;;;;;;;10.03;31.14;101780.16;10373899;28;20270;-87
2022/03/24 01:13:30;;;;;;;32.37;20.93;;;;;;;10.21;30.94;101776.47;10381781;28;20327;-87
2022/03/24 01:18:34;;;;;;;29.73;20.60;;;;;;;10.11;30.85;101770.97;10402280;28;20266;-87
2022/03/24 01:23:38;;;;;;;33.50;21.40;;;;;;;10.23;30.53;101768.47;10364249;28;20213;-87
2022/03/24 01:28:41;;;;;;;29.17;19.50;;;;;;;10.18;30.75;101768.59;10376672;28;20259;-87
2022/03/24 01:33:47;;;;;;;29.73;20.77;;;;;;;10.16;30.67;101759.59;10371566;28;20224;-88
2022/03/24 01:38:50;;;;;;;29.13;20.07;;;;;;;9.76;31.21;101761.16;10351267;28;20213;-86
2022/03/24 01:43:52;;;;;;;32.77;21.43;;;;;;;9.51;31.86;101761.53;10344986;28;20491;-87
2022/03/24 01:48:54;;;;;;;30.87;22.17;;;;;;;9.50;31.40;101759.84;10362030;28;20667;-87
2022/03/24 01:53:59;;;;;;;33.43;21.97;;;;;;;9.78;31.23;101756.03;10364501;28;20224;-87
2022/03/24 01:59:02;;;;;;;33.87;20.90;;;;;;;9.90;30.91;101759.22;10425292;28;20286;-87
2022/03/24 02:04:04;;;;;;;32.53;21.60;;;;;;;9.44;31.64;101755.44;10380471;28;20209;-87
2022/03/24 02:09:07;;;;;;;32.97;21.73;;;;;;;9.59;31.42;101752.38;10351969;28;20205;-88
2022/03/24 02:14:09;;;;;;;36.17;21.93;;;;;;;9.57;31.42;101751.84;10370085;28;20229;-86
2022/03/24 02:19:17;;;;;;;31.53;21.63;;;;;;;9.40;31.60;101748.72;10368117;28;20201;-84
2022/03/24 02:24:21;;;;;;;31.27;21.27;;;;;;;9.50;31.62;101748.56;10367345;28;20197;-84
2022/03/24 02:29:25;;;;;;;28.90;21.43;;;;;;;9.35;31.75;101753.31;10365978;28;20272;-85
2022/03/24 02:39:50;;;;;;;30.27;20.57;;;;;;;9.15;31.99;101752.78;10366006;28;20260;-86
2022/03/24 02:44:56;;;;;;;29.60;21.67;;;;;;;9.20;32.36;101750.72;10365162;28;20209;-86
2022/03/24 02:49:59;;;;;;;33.37;21.43;;;;;;;9.53;31.58;101753.59;10342483;28;20475;-85
2022/03/24 02:55:02;;;;;;;32.53;21.60;;;;;;;8.99;32.13;101752.16;10345905;28;20276;-86
2022/03/24 03:00:06;;;;;;;27.87;20.53;;;;;;;8.46;32.95;101755.06;10352446;28;20558;-86
2022/03/24 03:05:09;;;;;;;29.63;20.57;;;;;;;9.02;32.01;101755.22;10358286;28;20247;-85
2022/03/24 03:10:12;;;;;;;30.33;20.27;;;;;;;9.11;32.28;101752.53;10370021;28;20232;-85
2022/03/24 03:15:14;;;;;;;29.83;20.30;;;;;;;8.80;32.36;101759.72;10363275;28;20236;-85
2022/03/24 03:20:16;;;;;;;30.43;21.30;;;;;;;8.92;32.59;101757.34;10378700;28;20542;-86
2022/03/24 03:25:20;;;;;;;32.70;21.77;;;;;;;9.05;32.16;101758.59;10344737;28;20205;-85
2022/03/24 03:30:22;;;;;;;29.37;20.77;;;;;;;8.81;32.70;101764.25;10395871;28;20204;-86
2022/03/24 03:35:24;;;;;;;30.70;21.37;;;;;;;8.48;32.93;101764.06;10405305;28;20578;-86
2022/03/24 03:40:27;;;;;;;28.90;21.20;;;;;;;8.98;32.33;101759.78;10388472;28;20209;-85
2022/03/24 03:45:30;;;;;;;31.67;20.77;;;;;;;8.27;33.63;101757.00;10388744;28;20200;-85
2022/03/24 03:50:32;;;;;;;29.40;20.30;;;;;;;8.57;33.00;101765.06;10404531;28;20212;-85
2022/03/24 03:55:36;;;;;;;32.03;20.50;;;;;;;8.65;33.09;101755.97;10387957;28;20229;-85
2022/03/24 04:00:57;;;;;;;31.23;21.93;;;;;;;8.30;33.28;101759.19;10395297;28;20213;-86
2022/03/24 04:06:11;;;;;;;32.47;20.67;;;;;;;8.21;33.53;101758.16;10380705;28;20247;-84
2022/03/24 04:11:13;;;;;;;29.70;19.17;;;;;;;8.41;32.99;101760.75;10404082;28;20209;-85
2022/03/24 04:16:16;;;;;;;27.47;19.13;;;;;;;8.50;32.95;101761.78;10403665;28;20231;-85
2022/03/24 04:21:20;;;;;;;28.63;20.40;;;;;;;8.56;32.69;101766.22;10419906;28;20193;-85
2022/03/24 04:26:22;;;;;;;29.03;18.83;;;;;;;8.03;33.45;101767.34;10403141;28;20250;-84
2022/03/24 04:31:24;;;;;;;28.10;18.63;;;;;;;8.54;32.96;101762.84;10398267;28;20220;-84
2022/03/24 04:36:27;;;;;;;34.80;21.17;;;;;;;8.03;33.66;101765.38;10386766;28;20262;-83
2022/03/24 04:41:30;;;;;;;31.67;19.37;;;;;;;7.80;33.66;101761.38;10402634;28;20467;-83
2022/03/24 04:46:33;;;;;;;27.37;19.00;;;;;;;7.84;33.89;101767.25;10402681;28;20196;-84
2022/03/24 04:51:37;;;;;;;28.23;18.93;;;;;;;7.65;33.96;101778.34;10392074;28;20228;-84
2022/03/24 04:56:39;;;;;;;28.60;18.73;;;;;;;7.85;33.92;101764.16;10385163;28;20224;-84
2022/03/24 05:01:41;;;;;;;29.50;19.50;;;;;;;7.93;33.70;101766.31;10401891;28;20231;-84
2022/03/24 05:06:44;;;;;;;28.97;20.53;;;;;;;8.15;33.31;101757.38;10401854;28;20255;-84
2022/03/24 05:11:46;;;;;;;28.33;18.57;;;;;;;8.03;33.35;101761.72;10398515;28;20213;-87
2022/03/24 05:16:48;;;;;;;28.10;19.67;;;;;;;8.16;33.24;101763.84;10418289;28;20216;-87
2022/03/24 05:21:51;;;;;;;31.77;19.47;;;;;;;8.27;33.21;101763.47;10385677;28;20224;-86
2022/03/24 05:26:53;;;;;;;29.30;19.07;;;;;;;8.26;32.96;101761.78;10358433;28;20574;-84
2022/03/24 05:31:56;;;;;;;31.07;19.93;;;;;;;8.04;33.22;101766.22;10374189;28;20267;-85
2022/03/24 05:36:59;;;;;;;27.87;18.47;;;;;;;8.13;33.32;101770.09;10376249;28;20197;-84
2022/03/24 05:42:02;;;;;;;33.60;19.57;;;;;;;8.28;32.98;101761.44;10380626;28;20209;-84
2022/03/24 05:47:05;;;;;;;29.70;20.87;;;;;;;7.99;33.43;101774.72;10400854;28;20205;-86
2022/03/24 05:52:07;;;;;;;30.13;19.87;;;;;;;8.13;33.45;101770.09;10383770;28;20224;-84
2022/03/24 05:57:10;;;;;;;32.83;20.60;;;;;;;8.03;33.52;101775.81;10387076;28;20233;-83
2022/03/24 06:02:13;;;;;;;33.50;20.30;;;;;;;8.18;33.29;101778.47;10378366;28;20197;-85
2022/03/24 06:07:17;;;;;;;31.17;20.27;;;;;;;8.17;33.36;101776.78;10358089;28;20232;-84
2022/03/24 06:12:21;;;;;;;32.43;20.67;;;;;;;8.13;33.57;101781.34;10351356;28;20286;-83
2022/03/24 06:17:28;;;;;;;32.43;20.70;;;;;;;8.36;33.21;101786.19;10353810;28;20225;-82
2022/03/24 06:22:31;;;;;;;32.00;20.57;;;;;;;8.54;33.26;101776.09;10363122;28;20560;-83
2022/03/24 06:27:33;;;;;;;42.97;22.00;;;;;;;8.39;33.36;101785.59;10372095;28;20255;-83
2022/03/24 06:32:36;;;;;;;33.27;20.83;;;;;;;8.81;33.00;101786.78;10384191;28;20255;-83
2022/03/24 06:37:42;;;;;;;34.40;20.97;;;;;;;8.99;32.91;101788.81;10374624;28;20213;-82
2022/03/24 06:42:44;;;;;;;39.97;20.67;;;;;;;8.94;33.00;101789.72;10383225;28;20193;-83
2022/03/24 06:47:47;;;;;;;34.23;21.67;;;;;;;9.40;32.12;101785.44;10372699;28;20221;-83
2022/03/24 06:52:49;;;;;;;30.87;21.73;;;;;;;9.46;32.08;101787.84;10392395;28;20249;-82
2022/03/24 06:57:51;;;;;;;33.70;22.23;;;;;;;9.59;31.98;101786.28;10377514;28;20538;-83
2022/03/24 07:02:53;;;;;;;36.50;22.43;;;;;;;9.48;32.07;101787.56;10416704;28;20259;-82
2022/03/24 07:07:55;;;;;;;38.97;21.40;;;;;;;9.99;31.73;101779.94;10414937;28;20200;-82
2022/03/24 07:12:58;;;;;;;35.97;20.73;;;;;;;10.32;31.42;101779.94;10387876;28;20513;-85
2022/03/24 07:18:00;;;;;;;32.40;21.37;;;;;;;10.43;31.28;101793.53;10406925;28;20225;-84
2022/03/24 07:23:03;;;;;;;30.10;22.17;;;;;;;10.34;31.09;101797.41;10402221;28;20198;-84
2022/03/24 07:28:07;;;;;;;40.20;22.80;;;;;;;10.69;30.65;101796.75;10380086;28;20205;-82
2022/03/24 07:33:11;;;;;;;37.80;23.57;;;;;;;11.24;29.49;101804.34;10357190;28;20221;-84
2022/03/24 07:38:14;;;;;;;33.70;22.73;;;;;;;11.57;28.38;101803.03;10391665;28;20205;-85
2022/03/24 07:43:23;;;;;;;36.30;23.87;;;;;;;11.68;27.06;101803.59;10378541;28;20200;-84
2022/03/24 07:48:26;;;;;;;33.77;22.87;;;;;;;11.07;28.00;101805.00;10399305;28;20218;-84
2022/03/24 07:53:36;;;;;;;34.20;24.10;;;;;;;12.19;26.63;101800.34;10403429;28;20703;-86
2022/03/24 07:58:39;;;;;;;37.63;25.23;;;;;;;11.68;27.08;101812.09;10395264;28;20255;-84
2022/03/24 08:03:43;;;;;;;33.50;23.90;;;;;;;10.60;29.11;101809.09;10397790;28;20597;-84
2022/03/24 08:08:45;;;;;;;35.30;23.33;;;;;;;11.42;27.64;101811.88;10379352;28;20255;-84
2022/03/24 08:13:52;;;;;;;36.87;24.13;;;;;;;11.95;27.99;101814.81;10379531;28;20300;-84
2022/03/24 08:18:56;;;;;;;40.17;24.10;;;;;;;13.37;26.02;101815.69;10353649;28;20561;-84
2022/03/24 08:23:58;;;;;;;34.47;23.07;;;;;;;13.17;25.51;101811.47;10366880;28;20277;-85
2022/03/24 08:29:00;;;;;;;40.67;26.10;;;;;;;13.03;26.20;101814.47;10364330;28;20666;-85
2022/03/24 08:34:02;;;;;;;44.80;25.57;;;;;;;13.19;25.68;101814.84;10412240;28;20258;-84
2022/03/24 08:39:04;;;;;;;42.13;25.27;;;;;;;12.55;25.94;101818.09;10368816;28;20193;-86
2022/03/24 08:44:07;;;;;;;39.37;25.07;;;;;;;11.97;27.16;101829.53;10362526;28;20212;-86
2022/03/24 08:49:09;;;;;;;39.57;25.30;;;;;;;13.15;26.22;101816.66;10374537;28;20205;-84
2022/03/24 08:54:12;;;;;;;42.97;25.43;;;;;;;13.68;25.17;101815.59;10364877;28;20310;-85
2022/03/24 08:59:14;;;;;;;41.20;27.53;;;;;;;14.00;24.77;101822.75;10387068;28;20204;-84
2022/03/24 09:04:18;;;;;;;40.17;25.57;;;;;;;14.15;24.90;101820.22;10401994;28;20201;-85
2022/03/24 09:09:24;;;;;;;44.17;27.45;;;;;;;13.95;25.49;101820.94;10401061;28;20208;-84
2022/03/24 09:14:26;;;;;;;40.30;26.00;;;;;;;14.80;23.96;101819.06;10398579;28;20271;-85
2022/03/24 09:19:29;;;;;;;43.00;27.87;;;;;;;13.94;24.49;101820.09;10418011;28;20598;-84
2022/03/24 09:24:32;;;;;;;38.17;26.13;;;;;;;13.44;24.95;101822.56;10401993;28;20196;-84
2022/03/24 09:29:35;;;;;;;37.80;24.65;;;;;;;14.05;24.44;101823.44;10401567;28;20192;-83
2022/03/24 09:34:37;;;;;;;39.17;27.08;;;;;;;13.90;24.46;101826.78;10400949;28;20277;-84
2022/03/24 09:39:40;;;;;;;40.60;27.43;;;;;;;14.30;24.51;101827.38;10401562;28;20200;-84
2022/03/24 09:44:42;;;;;;;40.53;26.13;;;;;;;14.11;24.30;101824.09;10418943;28;20189;-84
2022/03/24 09:49:45;;;;;;;46.83;27.95;;;;;;;14.70;23.75;101829.97;10418002;28;20196;-83
2022/03/24 09:54:48;;;;;;;45.27;27.57;;;;;;;14.93;24.36;101828.53;10401474;28;20224;-84
2022/03/24 09:59:51;;;;;;;50.23;27.57;;;;;;;14.89;24.10;101827.56;10393900;28;20216;-84
2022/03/24 10:05:01;;;;;;;40.55;27.48;;;;;;;15.19;22.68;101826.41;10401108;28;20223;-84
2022/03/24 10:10:04;;;;;;;39.97;26.47;;;;;;;14.89;22.66;101821.88;10397948;28;20205;-85
2022/03/24 10:15:08;;;;;;;38.38;25.85;;;;;;;15.75;20.88;101824.22;10401797;28;20236;-84
2022/03/24 10:20:15;;;;;;;38.77;24.67;;;;;;;14.36;22.24;101826.09;10408267;28;20189;-84
2022/03/24 10:25:23;;;;;;;41.15;25.88;;;;;;;15.35;21.66;101818.09;10424367;28;20184;-83
2022/03/24 10:30:25;;;;;;;40.03;24.77;;;;;;;15.39;20.81;101824.78;10405397;28;20213;-84
2022/03/24 10:35:28;;;;;;;42.20;25.98;;;;;;;16.33;20.09;101808.84;10418953;28;20224;-84
2022/03/24 10:40:35;;;;;;;38.90;26.30;;;;;;;15.43;19.77;101814.34;10423829;28;20197;-84
2022/03/24 10:45:37;;;;;;;42.70;26.95;;;;;;;16.22;20.14;101807.63;10407632;28;20311;-84
2022/03/24 10:50:41;;;;;;;37.67;25.50;;;;;;;15.87;19.73;101812.88;10404555;28;20201;-85
2022/03/24 10:55:43;;;;;;;34.35;26.77;;;;;;;15.48;21.08;101805.59;10419236;28;20232;-84
2022/03/24 11:00:48;;;;;;;37.97;25.95;;;;;;;16.15;19.69;101800.84;10386808;28;20254;-84
2022/03/24 11:05:50;;;;;;;37.70;26.80;;;;;;;16.31;18.65;101799.84;10413820;28;20517;-83
2022/03/24 11:10:53;;;;;;;35.22;25.25;;;;;;;16.24;18.93;101793.03;10377432;28;20490;-84
2022/03/24 11:16:01;;;;;;;36.00;24.77;;;;;;;15.51;19.75;101799.22;10405004;28;20236;-83
2022/03/24 11:21:39;;;;;;;32.88;24.15;;;;;;;17.47;17.42;101787.06;10421336;28;20211;-83
2022/03/24 11:26:41;;;;;;;40.08;25.15;;;;;;;17.28;17.54;101775.41;10408785;28;20235;-84
2022/03/24 11:31:44;;;;;;;36.15;25.90;;;;;;;16.23;18.50;101772.22;10422291;28;20220;-84
2022/03/24 11:36:50;;;;;;;35.45;25.20;;;;;;;18.08;16.30;101764.78;10373079;28;20252;-84
2022/03/24 11:41:53;;;;;;;32.63;25.50;;;;;;;16.09;18.13;101774.56;10384177;28;20557;-84
2022/03/24 11:46:59;;;;;;;34.35;24.63;;;;;;;16.30;18.34;101766.78;10393034;28;20197;-84
2022/03/24 11:52:02;;;;;;;37.28;26.08;;;;;;;16.84;17.83;101758.06;10407154;28;20216;-84
2022/03/24 11:57:33;;;;;;;37.20;26.45;;;;;;;16.95;17.75;101744.97;10378691;28;20557;-83
2022/03/24 12:02:35;;;;;;;37.92;27.52;;;;;;;17.84;17.79;101737.13;10405082;28;20259;-84
2022/03/24 12:07:38;;;;;;;36.42;25.83;;;;;;;18.24;17.48;101727.63;10415207;28;20197;-84
2022/03/24 12:13:00;;;;;;;35.25;25.27;;;;;;;17.42;17.54;101728.09;10375868;28;20263;-84
2022/03/24 12:18:05;;;;;;;35.10;25.45;;;;;;;17.63;16.89;101725.03;10401030;28;20220;-83
2022/03/24 12:23:08;;;;;;;31.42;23.92;;;;;;;17.79;16.45;101723.09;10377544;28;20606;-84
2022/03/24 12:28:22;;;;;;;37.03;25.83;;;;;;;17.40;16.97;101716.19;10362064;28;20260;-84
2022/03/24 12:33:43;;;;;;;33.17;24.33;;;;;;;17.74;15.88;101709.06;10359854;28;20221;-84
2022/03/24 12:38:47;;;;;;;30.73;24.15;;;;;;;18.23;17.39;101707.94;10384279;28;20274;-86
2022/03/24 12:44:01;;;;;;;38.15;24.50;;;;;;;18.78;15.94;101695.47;10397250;28;20224;-83
2022/03/24 12:49:10;;;;;;;36.17;26.35;;;;;;;17.54;16.43;101701.47;10378742;28;20205;-83
2022/03/24 12:54:17;;;;;;;33.45;26.38;;;;;;;18.50;15.99;101696.44;10353951;28;20699;-84
2022/03/24 12:59:19;;;;;;;33.58;25.48;;;;;;;17.69;15.75;101692.16;10353293;28;20546;-87
2022/03/24 13:04:22;;;;;;;38.97;27.08;;;;;;;18.20;15.94;101689.47;10363088;28;20367;-84
2022/03/24 13:09:24;;;;;;;37.30;27.08;;;;;;;19.34;14.93;101686.53;10339970;28;20231;-84
2022/03/24 13:14:27;;;;;;;35.55;24.90;;;;;;;18.90;15.58;101686.78;10390523;28;20224;-84
2022/03/24 13:19:30;;;;;;;36.90;27.85;;;;;;;18.22;15.56;101675.63;10385099;28;20553;-84
2022/03/24 13:24:32;;;;;;;35.40;27.08;;;;;;;19.09;15.40;101681.06;10363290;28;20634;-84
2022/03/24 13:29:44;;;;;;;35.67;26.60;;;;;;;18.93;15.36;101673.72;10372244;28;20510;-84
2022/03/24 13:35:00;;;;;;;38.00;26.88;;;;;;;18.07;15.67;101682.16;10375390;28;20221;-84
2022/03/24 13:40:04;;;;;;;39.17;26.52;;;;;;;17.63;16.02;101673.56;10360870;28;20224;-84
2022/03/24 13:45:10;;;;;;;38.45;27.63;;;;;;;19.41;14.73;101666.63;10383044;28;20201;-84
2022/03/24 13:50:21;;;;;;;40.72;26.83;;;;;;;19.15;14.66;101662.38;10371306;28;20544;-84
2022/03/24 13:55:28;;;;;;;37.78;26.65;;;;;;;17.97;15.79;101665.53;10411241;28;20454;-83
2022/03/24 14:00:48;;;;;;;38.47;26.42;;;;;;;18.69;15.68;101651.84;10356792;28;20696;-84
2022/03/24 14:06:00;;;;;;;36.83;26.75;;;;;;;18.34;15.80;101643.22;10378352;28;20241;-83
2022/03/24 14:11:20;;;;;;;42.22;28.42;;;;;;;18.27;15.46;101646.72;10384963;28;20197;-83
2022/03/24 14:16:28;;;;;;;37.20;27.30;;;;;;;18.75;15.33;101650.38;10378832;28;20232;-83
2022/03/24 14:21:56;;;;;;;38.88;27.17;;;;;;;18.92;14.90;101632.81;10366287;28;20602;-83
2022/03/24 14:27:18;;;;;;;34.97;25.95;;;;;;;18.86;14.90;101628.53;10366323;28;20197;-84
2022/03/24 15:20:01;;;;;;;39.72;28.65;;;;;;;18.82;15.09;101598.97;10371782;28;20204;-82
2022/03/24 15:25:04;;;;;;;39.80;28.08;;;;;;;19.36;15.10;101598.09;10370371;28;20205;-83
2022/03/24 15:30:07;;;;;;;38.65;26.25;;;;;;;18.93;15.12;101593.50;10382658;28;20205;-83
2022/03/24 15:35:10;;;;;;;39.35;27.13;;;;;;;18.30;15.28;101587.91;10395973;28;20225;-82
2022/03/24 15:40:12;;;;;;;41.03;28.48;;;;;;;18.05;15.91;101590.13;10385694;28;20224;-83
2022/03/24 15:45:17;;;;;;;39.10;28.27;;;;;;;18.06;15.94;101588.91;10347646;28;20259;-82
2022/03/24 15:50:21;;;;;;;42.35;27.05;;;;;;;17.60;16.63;101594.22;10363503;28;20201;-84
2022/03/24 15:55:24;;;;;;;37.90;27.08;;;;;;;18.37;16.36;101594.66;10361751;28;20275;-83
2022/03/24 16:00:26;;;;;;;36.58;27.38;;;;;;;17.70;16.72;101599.44;10379436;28;20209;-88
2022/03/24 16:05:33;;;;;;;40.30;28.45;;;;;;;18.18;16.46;101591.69;10376737;28;20590;-86
2022/03/24 16:10:36;;;;;;;39.65;27.25;;;;;;;18.50;16.00;101596.19;10354379;28;20205;-88
2022/03/24 16:15:38;;;;;;;42.97;26.77;;;;;;;18.34;16.37;101589.66;10369847;28;20276;-87
2022/03/24 16:20:41;;;;;;;39.22;28.02;;;;;;;17.61;16.66;101595.91;10402052;28;20212;-86
2022/03/24 16:25:43;;;;;;;38.28;28.02;;;;;;;18.28;16.27;101593.13;10362218;28;20557;-85
2022/03/24 16:30:45;;;;;;;39.03;26.25;;;;;;;17.83;16.83;101603.88;10347721;28;20252;-86
2022/03/24 16:35:49;;;;;;;40.17;26.73;;;;;;;18.83;15.66;101601.44;10404901;28;20270;-86
2022/03/24 16:40:52;;;;;;;40.53;26.65;;;;;;;18.35;16.38;101605.66;10329642;28;20241;-84
2022/03/24 16:45:54;;;;;;;38.47;26.80;;;;;;;18.59;16.16;101609.47;10331501;28;20204;-83
2022/03/24 16:50:57;;;;;;;35.55;26.55;;;;;;;17.43;17.25;101617.44;10377671;28;20232;-85
2022/03/24 16:55:59;;;;;;;36.95;26.55;;;;;;;18.18;16.41;101608.84;10356441;28;20242;-84
2022/03/24 17:01:01;;;;;;;41.25;28.55;;;;;;;17.90;16.35;101613.84;10394440;28;20215;-85
2022/03/24 17:06:05;;;;;;;35.00;26.05;;;;;;;18.34;16.43;101611.75;10402471;28;20495;-86
2022/03/24 17:11:08;;;;;;;36.25;26.17;;;;;;;17.80;17.19;101610.31;10401750;28;20216;-85
2022/03/24 17:16:10;;;;;;;34.63;24.80;;;;;;;17.97;16.67;101614.88;10396627;28;20236;-85
2022/03/24 17:21:13;;;;;;;38.28;25.85;;;;;;;18.06;16.61;101612.66;10420102;28;20209;-86
2022/03/24 17:26:16;;;;;;;32.53;24.77;;;;;;;18.00;16.89;101616.16;10383779;28;20248;-89
2022/03/24 17:31:19;;;;;;;32.70;24.85;;;;;;;18.16;16.91;101628.41;10397126;28;20205;-85
2022/03/24 17:36:21;;;;;;;34.00;24.52;;;;;;;17.66;16.96;101632.81;10379064;28;20220;-90
2022/03/24 17:41:24;;;;;;;35.92;22.27;;;;;;;17.55;18.42;101631.66;10412474;28;20204;-86
2022/03/24 17:46:26;;;;;;;33.80;24.40;;;;;;;17.42;18.35;101632.91;10389181;28;20200;-89
2022/03/24 17:51:28;;;;;;;33.95;23.85;;;;;;;17.09;19.23;101631.16;10368770;28;20220;-89
2022/03/24 17:56:30;;;;;;;36.92;25.55;;;;;;;16.93;19.30;101644.50;10342219;28;20218;-89
2022/03/24 18:01:33;;;;;;;36.40;24.23;;;;;;;16.84;18.78;101643.81;10359213;28;20220;-84
2022/03/24 18:06:38;;;;;;;36.40;25.13;;;;;;;16.88;18.82;101649.63;10370416;28;20206;-88
2022/03/24 18:11:41;;;;;;;32.95;23.60;;;;;;;16.57;19.83;101653.13;10355003;28;20279;-87
2022/03/24 18:16:44;;;;;;;38.40;23.83;;;;;;;16.38;19.70;101648.00;10383813;28;20228;-88
2022/03/24 18:21:47;;;;;;;34.93;23.80;;;;;;;16.36;19.96;101656.06;10414357;28;20262;-92
2022/03/24 18:26:52;;;;;;;37.67;25.38;;;;;;;16.30;20.07;101664.03;10406927;28;20595;-86
2022/03/24 18:31:54;;;;;;;34.83;24.00;;;;;;;16.42;19.94;101657.53;10377740;28;20201;-87
2022/03/24 18:36:57;;;;;;;42.25;24.98;;;;;;;15.85;21.38;101666.94;10348500;28;20221;-88
2022/03/24 18:42:00;;;;;;;33.27;24.27;;;;;;;15.73;21.03;101669.75;10378913;28;20248;-89
2022/03/24 18:47:05;;;;;;;38.73;24.43;;;;;;;15.60;21.20;101679.41;10363317;28;20264;-85
2022/03/24 18:52:08;;;;;;;40.67;26.63;;;;;;;15.60;20.75;101683.09;10351690;28;20208;-89
2022/03/24 18:57:11;;;;;;;40.83;26.50;;;;;;;15.25;21.68;101687.47;10389616;28;20243;-89
2022/03/24 19:02:13;;;;;;;37.35;24.60;;;;;;;15.38;21.80;101686.34;10393292;28;20197;-91
2022/03/24 19:07:16;;;;;;;38.67;25.83;;;;;;;15.29;21.74;101691.25;10407931;28;20601;-92
2022/03/24 19:12:18;;;;;;;46.70;29.80;;;;;;;15.13;21.95;101684.53;10419698;28;20637;-89
2022/03/24 19:17:21;;;;;;;46.60;28.90;;;;;;;14.78;22.54;101684.75;10383780;28;20261;-88
2022/03/24 19:22:23;;;;;;;40.70;28.37;;;;;;;14.58;23.19;101688.41;10386811;28;20668;-86
2022/03/24 19:27:26;;;;;;;43.83;28.00;;;;;;;14.68;23.08;101682.31;10406165;28;20672;-90
2022/03/24 19:32:28;;;;;;;39.67;27.30;;;;;;;14.64;23.40;101684.16;10378603;28;20507;-88
2022/03/24 19:37:30;;;;;;;46.87;29.60;;;;;;;14.33;23.47;101689.38;10405852;28;20278;-89
2022/03/24 19:42:34;;;;;;;41.57;27.73;;;;;;;14.25;23.55;101693.88;10403072;28;20208;-91
2022/03/24 19:47:38;;;;;;;43.37;28.00;;;;;;;14.31;23.70;101693.34;10379780;28;20193;-90
2022/03/24 19:52:40;;;;;;;44.47;28.53;;;;;;;13.91;24.15;101694.81;10420904;28;20220;-91
2022/03/24 19:57:43;;;;;;;41.93;27.37;;;;;;;14.25;23.78;101706.06;10405779;28;20548;-87
2022/03/24 20:02:51;;;;;;;44.37;27.73;;;;;;;13.80;24.64;101704.91;10406032;28;20205;-89
2022/03/24 20:07:54;;;;;;;41.83;28.93;;;;;;;13.69;25.13;101723.47;10383450;28;20201;-89
2022/03/24 20:12:56;;;;;;;44.33;30.63;;;;;;;14.21;24.37;101712.81;10363748;28;20233;-89
2022/03/24 20:18:00;;;;;;;48.83;30.20;;;;;;;14.00;24.76;101724.06;10363560;28;20287;-86
2022/03/24 20:23:04;;;;;;;43.83;31.50;;;;;;;14.01;24.52;101722.88;10380314;28;20189;-90
2022/03/24 20:28:08;;;;;;;47.80;31.27;;;;;;;13.96;24.46;101728.78;10381525;28;20197;-87
2022/03/24 20:33:11;;;;;;;42.00;30.23;;;;;;;13.69;24.65;101734.84;10381799;28;20196;-90
2022/03/24 20:38:13;;;;;;;48.03;31.17;;;;;;;13.54;25.06;101737.00;10383445;28;20233;-89
2022/03/24 20:43:15;;;;;;;46.13;30.47;;;;;;;13.62;24.95;101732.50;10385905;28;20216;-88
2022/03/24 20:48:18;;;;;;;45.77;30.17;;;;;;;13.67;24.92;101745.72;10372864;28;20213;-86
2022/03/24 20:53:21;;;;;;;58.40;32.33;;;;;;;13.80;24.51;101742.69;10368531;28;20272;-85
2022/03/24 20:58:24;;;;;;;47.23;30.67;;;;;;;13.59;25.17;101738.84;10366949;28;20221;-88
2022/03/24 21:03:27;;;;;;;49.30;30.97;;;;;;;13.37;25.39;101741.81;10395418;28;20206;-89
2022/03/24 21:08:30;;;;;;;48.67;30.80;;;;;;;12.95;25.98;101746.31;10372719;28;20263;-91
2022/03/24 21:13:33;;;;;;;47.30;31.47;;;;;;;12.90;26.17;101741.63;10353012;28;20233;-90
2022/03/24 21:18:38;;;;;;;43.53;29.63;;;;;;;12.93;25.97;101745.81;10385564;28;20225;-89
2022/03/24 21:23:40;;;;;;;54.57;30.37;;;;;;;13.00;26.00;101746.13;10378278;28;20224;-89
2022/03/24 21:28:44;;;;;;;50.40;29.90;;;;;;;12.79;26.00;101743.06;10364636;28;20193;-88
2022/03/24 21:33:46;;;;;;;41.60;29.13;;;;;;;12.71;26.09;101753.19;10365195;28;20193;-89
2022/03/24 21:38:49;;;;;;;44.17;28.63;;;;;;;12.29;26.69;101756.72;10360003;28;20288;-89
2022/03/24 21:43:51;;;;;;;40.57;28.30;;;;;;;12.28;26.49;101757.88;10407716;28;20277;-86
2022/03/24 21:48:53;;;;;;;43.17;30.07;;;;;;;11.99;27.33;101764.84;10386731;28;20270;-89
2022/03/24 21:53:56;;;;;;;43.53;28.00;;;;;;;12.20;26.74;101766.00;10375456;28;20224;-86
2022/03/24 21:58:58;;;;;;;50.47;32.57;;;;;;;12.36;26.78;101762.75;10364986;28;20225;-86
2022/03/24 22:04:01;;;;;;;46.70;31.43;;;;;;;12.12;27.18;101758.28;10380728;28;20205;-88
2022/03/24 22:09:06;;;;;;;52.63;32.97;;;;;;;12.38;27.12;101760.44;10410468;28;20219;-87
2022/03/24 22:14:08;;;;;;;43.23;30.00;;;;;;;11.37;27.62;101764.72;10411932;28;20232;-85
2022/03/24 22:19:10;;;;;;;41.27;28.50;;;;;;;11.89;27.16;101776.47;10390525;28;20220;-86
2022/03/24 22:24:13;;;;;;;39.90;27.53;;;;;;;12.08;26.91;101774.22;10386121;28;20606;-85
2022/03/24 22:29:15;;;;;;;43.37;29.23;;;;;;;11.97;26.79;101783.34;10409203;28;20209;-85
2022/03/24 22:34:18;;;;;;;45.27;29.20;;;;;;;12.29;27.09;101771.75;10426945;28;20205;-84
2022/03/24 22:39:24;;;;;;;41.20;27.63;;;;;;;11.85;27.49;101789.59;10407887;28;20228;-84
2022/03/24 22:44:27;;;;;;;45.77;29.60;;;;;;;11.66;27.69;101786.94;10382806;28;20213;-85
2022/03/24 22:49:29;;;;;;;40.60;27.67;;;;;;;11.45;28.27;101789.44;10366718;28;20201;-85
2022/03/24 22:54:31;;;;;;;47.37;31.50;;;;;;;11.32;28.32;101790.31;10366728;28;20232;-84
2022/03/24 22:59:34;;;;;;;44.43;30.20;;;;;;;11.51;27.88;101792.16;10367793;28;20281;-85
2022/03/24 23:04:37;;;;;;;42.77;30.27;;;;;;;11.28;28.42;101786.38;10383504;28;20189;-86
2022/03/24 23:09:40;;;;;;;47.83;30.80;;;;;;;11.16;28.65;101791.75;10366570;28;20678;-85
2022/03/24 23:14:42;;;;;;;45.17;29.90;;;;;;;11.12;28.63;101774.59;10364398;28;20302;-85
2022/03/24 23:19:45;;;;;;;43.43;29.63;;;;;;;11.33;28.11;101780.66;10382046;28;20221;-84
2022/03/24 23:24:47;;;;;;;45.00;31.53;;;;;;;11.08;28.73;101775.53;10364311;28;20201;-85
2022/03/24 23:29:49;;;;;;;45.97;31.30;;;;;;;11.19;28.16;101778.97;10381686;28;20216;-84
2022/03/24 23:34:52;;;;;;;42.17;29.03;;;;;;;10.81;28.71;101772.75;10366016;28;20549;-85
2022/03/24 23:39:54;;;;;;;41.70;30.00;;;;;;;11.10;28.51;101770.41;10388856;28;20247;-85
2022/03/24 23:44:56;;;;;;;44.10;30.33;;;;;;;10.55;29.44;101775.25;10405005;28;20498;-86